Ternholm — OWIM2 — position and weather

sailwx.info

Track history (hours):
 
Tides and Currents Weather Stations Pressure Air Temp Water Temp Dewpoint Dewpoint Depression Visibility Wind Speed Wind Dir Waves Ship Positions

Ternholm

Last reported at 2016-Jun-28 04:32 UTC. Time now 2016-Jun-28 06:03 UTC.
Position N 57°41' E 011°52'.

Length 141 m; draft 6.5 m.

Type: Tanker. MMSI: 219076000.

Date/timePositionNaut miles runAvg speedWind from/ knotsBaromVisibWave heightAir tempDewpointWater temp
2016-Jun-28 04:32N 57°41' E 011°52'0 0.0
2016-Jun-28 03:32N 57°41' E 011°52'0 0.0
2016-Jun-28 02:33N 57°41' E 011°52'7 7.4
2016-Jun-28 01:33N 57°37' E 011°41'10 9.9
2016-Jun-28 00:33N 57°27' E 011°40'1010.1
2016-Jun-27 23:33N 57°18' E 011°47'1110.5
2016-Jun-27 22:33N 57°09' E 011°57'1111.2
2016-Jun-27 21:33N 56°59' E 012°04'1211.6
2016-Jun-27 20:33N 56°47' E 012°09'1211.7
2016-Jun-27 19:32N 56°36' E 012°15'1111.6
2016-Jun-27 18:33N 56°25' E 012°19'1111.3
2016-Jun-27 17:33N 56°14' E 012°26'1111.3
2016-Jun-27 16:33N 56°05' E 012°37'1110.6
2016-Jun-27 15:33N 55°55' E 012°44'1111.0
2016-Jun-27 14:33N 55°45' E 012°51'9 8.9
2016-Jun-27 13:33N 55°36' E 012°52'1111.0
2016-Jun-27 12:33N 55°26' E 012°42'10 9.7
2016-Jun-27 11:33N 55°17' E 012°46'1111.3
2016-Jun-27 10:33N 55°16' E 013°06'1211.5
2016-Jun-27 09:33N 55°15' E 013°26'1211.6
2016-Jun-27 08:33N 55°14' E 013°46'1211.6
2016-Jun-27 07:33N 55°14' E 014°07'1110.9
2016-Jun-27 06:33N 55°19' E 014°24'1211.7
2016-Jun-27 05:33N 55°28' E 014°37'1211.6
2016-Jun-27 04:33N 55°33' E 014°55'1211.7
2016-Jun-27 03:33N 55°39' E 015°13'1211.7
2016-Jun-27 02:33N 55°44' E 015°31'1211.7
2016-Jun-27 01:33N 55°50' E 015°50'27211.3
2016-Jun-26 01:28N 59°07' E 021°38'1111.6
2016-Jun-26 00:33N 59°14' E 021°53'1211.7
2016-Jun-25 23:33N 59°22' E 022°11'1211.7
2016-Jun-25 22:33N 59°29' E 022°29'1211.5
2016-Jun-25 21:33N 59°33' E 022°50'1211.7
2016-Jun-25 20:32N 59°37' E 023°13'1111.6
2016-Jun-25 19:33N 59°40' E 023°34'1211.7
2016-Jun-25 18:30N 59°43' E 023°58'1511.6
2016-Jun-25 17:13N 59°47' E 024°26'1211.7
2016-Jun-25 16:10N 59°50' E 024°50'3311.8
2016-Jun-25 13:20N 59°56' E 025°56'911.6
2016-Jun-25 12:32N 59°60' E 026°12'1111.5
2016-Jun-25 11:33N 60°07' E 026°29'1110.9
2016-Jun-25 10:34N 60°14' E 026°47'1111.1
2016-Jun-25 09:33N 60°21' E 027°05'10 9.1
2016-Jun-25 08:30N 60°29' E 027°14'3 1.7
2016-Jun-25 06:33N 60°31' E 027°10'0 0.0
2016-Jun-25 04:33N 60°31' E 027°10'0 0.0
2016-Jun-25 03:33N 60°31' E 027°10'0 0.0
2016-Jun-25 02:30N 60°31' E 027°10'0 0.0
2016-Jun-25 01:33N 60°31' E 027°10'0 0.0
2016-Jun-25 00:27N 60°31' E 027°10'0 0.0
2016-Jun-24 23:30N 60°31' E 027°10'0 0.0
2016-Jun-24 22:33N 60°31' E 027°10'0 0.0
2016-Jun-24 21:30N 60°31' E 027°10'0 0.0
2016-Jun-24 20:33N 60°31' E 027°10'0 0.0
2016-Jun-24 14:09N 60°31' E 027°10'0 0.0
2016-Jun-24 13:06N 60°31' E 027°10'0 0.0
2016-Jun-24 12:33N 60°31' E 027°10'0 0.0
2016-Jun-24 11:30N 60°31' E 027°10'0 0.0
2016-Jun-24 10:33N 60°31' E 027°10'0 0.0
2016-Jun-24 09:33N 60°31' E 027°10'0 0.0
2016-Jun-24 08:33N 60°31' E 027°10'2 0.6
2016-Jun-24 04:33N 60°29' E 027°13'9 8.7
2016-Jun-24 03:33N 60°21' E 027°09'1111.5
2016-Jun-24 02:34N 60°23' E 026°47'1111.5
2016-Jun-24 01:34N 60°16' E 026°28'9 8.9
2016-Jun-24 00:34N 60°08' E 026°20'1211.6
2016-Jun-23 23:33N 59°59' E 026°06'1111.2
2016-Jun-23 22:34N 59°53' E 025°47'2311.6
2016-Jun-23 20:33N 59°48' E 025°01'1111.6
2016-Jun-23 19:34N 59°45' E 024°39'1211.6
2016-Jun-23 18:31N 59°42' E 024°16'1111.6
2016-Jun-23 17:33N 59°39' E 023°55'1711.7
2016-Jun-23 16:08N 59°33' E 023°24'711.7
2016-Jun-23 15:33N 59°31' E 023°11'31411.4
2016-Jun-22 12:08N 55°52' E 016°11'711.7
2016-Jun-22 11:33N 55°49' E 016°00'1211.7
2016-Jun-22 10:33N 55°43' E 015°42'1211.7
2016-Jun-22 09:33N 55°37' E 015°24'1211.7
2016-Jun-22 08:33N 55°32' E 015°06'1211.7
2016-Jun-22 07:33N 55°27' E 014°47'1111.5
2016-Jun-22 06:33N 55°19' E 014°32'1211.7
2016-Jun-22 05:34N 55°10' E 014°20'1211.6
2016-Jun-22 04:33N 55°01' E 014°07'1211.7
2016-Jun-22 03:33N 54°57' E 013°48'2611.7
2016-Jun-22 01:21N 54°49' E 013°05'1011.6
2016-Jun-22 00:31N 54°46' E 012°49'1111.6
2016-Jun-21 23:34N 54°41' E 012°32'1211.5
2016-Jun-21 22:33N 54°33' E 012°18'1110.6
2016-Jun-21 21:32N 54°25' E 012°06'1111.6
2016-Jun-21 20:33N 54°25' E 011°46'1111.5
2016-Jun-21 19:34N 54°30' E 011°29'1211.7
2016-Jun-21 18:33N 54°35' E 011°10'1111.5
2016-Jun-21 17:34N 54°41' E 010°54'1110.9
2016-Jun-21 16:34N 54°52' E 010°52'1111.2
2016-Jun-21 15:34N 55°02' E 011°01'1111.2
2016-Jun-21 14:34N 55°13' E 011°06'1111.4
2016-Jun-21 13:33N 55°24' E 010°60'6210.3
2016-Jun-21 07:34N 56°24' E 011°29'1211.6
2016-Jun-21 06:34N 56°34' E 011°40'22 9.7
2016-Jun-21 04:18N 56°55' E 011°45'811.2
2016-Jun-21 03:33N 57°03' E 011°40'1111.0
2016-Jun-21 02:33N 57°13' E 011°33'1010.0
2016-Jun-21 01:34N 57°23' E 011°33'1010.0
2016-Jun-21 00:33N 57°33' E 011°37'9 9.3
2016-Jun-20 23:34N 57°40' E 011°48'3 2.5
2016-Jun-20 22:33N 57°41' E 011°52'0 0.0
2016-Jun-20 21:33N 57°41' E 011°52'0 0.0
2016-Jun-20 20:33N 57°41' E 011°52'0 0.0
2016-Jun-20 19:33N 57°41' E 011°52'0 0.0
2016-Jun-20 18:33N 57°41' E 011°52'0 0.0
2016-Jun-20 17:32N 57°41' E 011°52'0 0.0
2016-Jun-20 16:32N 57°41' E 011°52'0 0.0
2016-Jun-20 15:32N 57°41' E 011°52'0 0.0
2016-Jun-20 14:32N 57°41' E 011°52'0 0.0
2016-Jun-20 13:32N 57°41' E 011°52'0 0.0
2016-Jun-20 12:32N 57°41' E 011°52'0 0.0
2016-Jun-20 11:32N 57°41' E 011°52'0 0.0
2016-Jun-20 10:32N 57°41' E 011°52'0 0.0
2016-Jun-20 09:32N 57°41' E 011°52'0 0.0
2016-Jun-20 08:32N 57°41' E 011°52'0 0.0
2016-Jun-20 07:32N 57°41' E 011°52'0 0.0
2016-Jun-20 06:32N 57°41' E 011°52'0 0.0
2016-Jun-20 05:32N 57°41' E 011°52'0 0.0
2016-Jun-20 04:32N 57°41' E 011°52'0 0.0
2016-Jun-20 03:32N 57°41' E 011°52'0 0.0
2016-Jun-20 02:32N 57°41' E 011°52'0 0.0
2016-Jun-20 01:32N 57°41' E 011°52'0 0.0
2016-Jun-20 00:32N 57°41' E 011°52'0 0.0
2016-Jun-19 23:32N 57°41' E 011°52'0 0.0
2016-Jun-19 22:32N 57°41' E 011°52'0 0.0
2016-Jun-19 21:32N 57°41' E 011°52'0 0.0
2016-Jun-19 20:32N 57°41' E 011°52'0 0.0
2016-Jun-19 19:32N 57°41' E 011°52'0 0.0
2016-Jun-19 18:32N 57°41' E 011°52'0 0.0
2016-Jun-19 17:32N 57°41' E 011°52'0 0.0
2016-Jun-19 16:32N 57°41' E 011°52'0 0.0
2016-Jun-19 15:32N 57°41' E 011°52'0 0.0
2016-Jun-19 14:32N 57°41' E 011°52'0 0.0
2016-Jun-19 13:32N 57°41' E 011°52'0 0.0
2016-Jun-19 12:32N 57°41' E 011°52'0 0.2
2016-Jun-19 11:33N 57°41' E 011°53'0 0.0
2016-Jun-19 10:33N 57°41' E 011°53'0 0.0
2016-Jun-19 09:33N 57°41' E 011°53'0 0.0
2016-Jun-19 08:33N 57°41' E 011°53'0 0.0
2016-Jun-19 07:33N 57°41' E 011°53'0 0.0
2016-Jun-19 06:33N 57°41' E 011°53'0 0.0
2016-Jun-19 05:33N 57°41' E 011°53'0 0.0
2016-Jun-19 04:33N 57°41' E 011°53'0 0.0
2016-Jun-19 03:33N 57°41' E 011°53'0 0.0
2016-Jun-19 02:33N 57°41' E 011°53'0 0.0
2016-Jun-19 01:33N 57°41' E 011°53'0 0.0
2016-Jun-19 00:33N 57°41' E 011°53'0 0.0
2016-Jun-18 23:33N 57°41' E 011°53'0 0.0
2016-Jun-18 22:33N 57°41' E 011°53'0 0.0
2016-Jun-18 21:33N 57°41' E 011°53'0 0.0
2016-Jun-18 20:32N 57°41' E 011°53'0 0.0
2016-Jun-18 19:32N 57°41' E 011°53'0 0.0
2016-Jun-18 18:32N 57°41' E 011°53'0 0.0
2016-Jun-18 17:32N 57°41' E 011°53'0 0.0
2016-Jun-18 16:32N 57°41' E 011°53'0 0.0
2016-Jun-18 15:32N 57°41' E 011°53'0 0.0
2016-Jun-18 14:32N 57°41' E 011°53'0 0.0
2016-Jun-18 13:32N 57°41' E 011°53'0 0.0
2016-Jun-18 12:32N 57°41' E 011°53'0 0.0
2016-Jun-18 11:32N 57°41' E 011°53'0 0.0
2016-Jun-18 10:32N 57°41' E 011°53'0 0.0
2016-Jun-18 09:32N 57°41' E 011°53'0 0.0
2016-Jun-18 08:32N 57°41' E 011°53'0 0.0
2016-Jun-18 07:32N 57°41' E 011°53'0 0.0
2016-Jun-18 06:32N 57°41' E 011°53'0 0.0
2016-Jun-18 05:32N 57°41' E 011°53'0 0.0
2016-Jun-18 04:32N 57°41' E 011°53'  
Track history (hours):
 
Tides and Currents Weather Stations Pressure Air Temp Water Temp Dewpoint Dewpoint Depression Visibility Wind Speed Wind Dir Waves Ship Positions

Ternholm

Last reported at 2016-Jun-28 04:32 UTC. Time now 2016-Jun-28 06:03 UTC.
Position N 57°41' E 011°52'.

Length 141 m; draft 6.5 m.

Type: Tanker. MMSI: 219076000.

Date/timePositionNaut miles runAvg speedWind from/ knotsBaromVisibWave heightAir tempDewpointWater temp
2016-Jun-28 04:32N 57°41' E 011°52'0 0.0
2016-Jun-28 03:32N 57°41' E 011°52'0 0.0
2016-Jun-28 02:33N 57°41' E 011°52'7 7.4
2016-Jun-28 01:33N 57°37' E 011°41'10 9.9
2016-Jun-28 00:33N 57°27' E 011°40'1010.1
2016-Jun-27 23:33N 57°18' E 011°47'1110.5
2016-Jun-27 22:33N 57°09' E 011°57'1111.2
2016-Jun-27 21:33N 56°59' E 012°04'1211.6
2016-Jun-27 20:33N 56°47' E 012°09'1211.7
2016-Jun-27 19:32N 56°36' E 012°15'1111.6
2016-Jun-27 18:33N 56°25' E 012°19'1111.3
2016-Jun-27 17:33N 56°14' E 012°26'1111.3
2016-Jun-27 16:33N 56°05' E 012°37'1110.6
2016-Jun-27 15:33N 55°55' E 012°44'1111.0
2016-Jun-27 14:33N 55°45' E 012°51'9 8.9
2016-Jun-27 13:33N 55°36' E 012°52'1111.0
2016-Jun-27 12:33N 55°26' E 012°42'10 9.7
2016-Jun-27 11:33N 55°17' E 012°46'1111.3
2016-Jun-27 10:33N 55°16' E 013°06'1211.5
2016-Jun-27 09:33N 55°15' E 013°26'1211.6
2016-Jun-27 08:33N 55°14' E 013°46'1211.6
2016-Jun-27 07:33N 55°14' E 014°07'1110.9
2016-Jun-27 06:33N 55°19' E 014°24'1211.7
2016-Jun-27 05:33N 55°28' E 014°37'1211.6
2016-Jun-27 04:33N 55°33' E 014°55'1211.7
2016-Jun-27 03:33N 55°39' E 015°13'1211.7
2016-Jun-27 02:33N 55°44' E 015°31'1211.7
2016-Jun-27 01:33N 55°50' E 015°50'27211.3
2016-Jun-26 01:28N 59°07' E 021°38'1111.6
2016-Jun-26 00:33N 59°14' E 021°53'1211.7
2016-Jun-25 23:33N 59°22' E 022°11'1211.7
2016-Jun-25 22:33N 59°29' E 022°29'1211.5
2016-Jun-25 21:33N 59°33' E 022°50'1211.7
2016-Jun-25 20:32N 59°37' E 023°13'1111.6
2016-Jun-25 19:33N 59°40' E 023°34'1211.7
2016-Jun-25 18:30N 59°43' E 023°58'1511.6
2016-Jun-25 17:13N 59°47' E 024°26'1211.7
2016-Jun-25 16:10N 59°50' E 024°50'3311.8
2016-Jun-25 13:20N 59°56' E 025°56'911.6
2016-Jun-25 12:32N 59°60' E 026°12'1111.5
2016-Jun-25 11:33N 60°07' E 026°29'1110.9
2016-Jun-25 10:34N 60°14' E 026°47'1111.1
2016-Jun-25 09:33N 60°21' E 027°05'10 9.1
2016-Jun-25 08:30N 60°29' E 027°14'3 1.7
2016-Jun-25 06:33N 60°31' E 027°10'0 0.0
2016-Jun-25 04:33N 60°31' E 027°10'0 0.0
2016-Jun-25 03:33N 60°31' E 027°10'0 0.0
2016-Jun-25 02:30N 60°31' E 027°10'0 0.0
2016-Jun-25 01:33N 60°31' E 027°10'0 0.0
2016-Jun-25 00:27N 60°31' E 027°10'0 0.0
2016-Jun-24 23:30N 60°31' E 027°10'0 0.0
2016-Jun-24 22:33N 60°31' E 027°10'0 0.0
2016-Jun-24 21:30N 60°31' E 027°10'0 0.0
2016-Jun-24 20:33N 60°31' E 027°10'0 0.0
2016-Jun-24 14:09N 60°31' E 027°10'0 0.0
2016-Jun-24 13:06N 60°31' E 027°10'0 0.0
2016-Jun-24 12:33N 60°31' E 027°10'0 0.0
2016-Jun-24 11:30N 60°31' E 027°10'0 0.0
2016-Jun-24 10:33N 60°31' E 027°10'0 0.0
2016-Jun-24 09:33N 60°31' E 027°10'0 0.0
2016-Jun-24 08:33N 60°31' E 027°10'2 0.6
2016-Jun-24 04:33N 60°29' E 027°13'9 8.7
2016-Jun-24 03:33N 60°21' E 027°09'1111.5
2016-Jun-24 02:34N 60°23' E 026°47'1111.5
2016-Jun-24 01:34N 60°16' E 026°28'9 8.9
2016-Jun-24 00:34N 60°08' E 026°20'1211.6
2016-Jun-23 23:33N 59°59' E 026°06'1111.2
2016-Jun-23 22:34N 59°53' E 025°47'2311.6
2016-Jun-23 20:33N 59°48' E 025°01'1111.6
2016-Jun-23 19:34N 59°45' E 024°39'1211.6
2016-Jun-23 18:31N 59°42' E 024°16'1111.6
2016-Jun-23 17:33N 59°39' E 023°55'1711.7
2016-Jun-23 16:08N 59°33' E 023°24'711.7
2016-Jun-23 15:33N 59°31' E 023°11'31411.4
2016-Jun-22 12:08N 55°52' E 016°11'711.7
2016-Jun-22 11:33N 55°49' E 016°00'1211.7
2016-Jun-22 10:33N 55°43' E 015°42'1211.7
2016-Jun-22 09:33N 55°37' E 015°24'1211.7
2016-Jun-22 08:33N 55°32' E 015°06'1211.7
2016-Jun-22 07:33N 55°27' E 014°47'1111.5
2016-Jun-22 06:33N 55°19' E 014°32'1211.7
2016-Jun-22 05:34N 55°10' E 014°20'1211.6
2016-Jun-22 04:33N 55°01' E 014°07'1211.7
2016-Jun-22 03:33N 54°57' E 013°48'2611.7
2016-Jun-22 01:21N 54°49' E 013°05'1011.6
2016-Jun-22 00:31N 54°46' E 012°49'1111.6
2016-Jun-21 23:34N 54°41' E 012°32'1211.5
2016-Jun-21 22:33N 54°33' E 012°18'1110.6
2016-Jun-21 21:32N 54°25' E 012°06'1111.6
2016-Jun-21 20:33N 54°25' E 011°46'1111.5
2016-Jun-21 19:34N 54°30' E 011°29'1211.7
2016-Jun-21 18:33N 54°35' E 011°10'1111.5
2016-Jun-21 17:34N 54°41' E 010°54'1110.9
2016-Jun-21 16:34N 54°52' E 010°52'1111.2
2016-Jun-21 15:34N 55°02' E 011°01'1111.2
2016-Jun-21 14:34N 55°13' E 011°06'1111.4
2016-Jun-21 13:33N 55°24' E 010°60'6210.3
2016-Jun-21 07:34N 56°24' E 011°29'1211.6
2016-Jun-21 06:34N 56°34' E 011°40'22 9.7
2016-Jun-21 04:18N 56°55' E 011°45'811.2
2016-Jun-21 03:33N 57°03' E 011°40'1111.0
2016-Jun-21 02:33N 57°13' E 011°33'1010.0
2016-Jun-21 01:34N 57°23' E 011°33'1010.0
2016-Jun-21 00:33N 57°33' E 011°37'9 9.3
2016-Jun-20 23:34N 57°40' E 011°48'3 2.5
2016-Jun-20 22:33N 57°41' E 011°52'0 0.0
2016-Jun-20 21:33N 57°41' E 011°52'0 0.0
2016-Jun-20 20:33N 57°41' E 011°52'0 0.0
2016-Jun-20 19:33N 57°41' E 011°52'0 0.0
2016-Jun-20 18:33N 57°41' E 011°52'0 0.0
2016-Jun-20 17:32N 57°41' E 011°52'0 0.0
2016-Jun-20 16:32N 57°41' E 011°52'0 0.0
2016-Jun-20 15:32N 57°41' E 011°52'0 0.0
2016-Jun-20 14:32N 57°41' E 011°52'0 0.0
2016-Jun-20 13:32N 57°41' E 011°52'0 0.0
2016-Jun-20 12:32N 57°41' E 011°52'0 0.0
2016-Jun-20 11:32N 57°41' E 011°52'0 0.0
2016-Jun-20 10:32N 57°41' E 011°52'0 0.0
2016-Jun-20 09:32N 57°41' E 011°52'0 0.0
2016-Jun-20 08:32N 57°41' E 011°52'0 0.0
2016-Jun-20 07:32N 57°41' E 011°52'0 0.0
2016-Jun-20 06:32N 57°41' E 011°52'0 0.0
2016-Jun-20 05:32N 57°41' E 011°52'0 0.0
2016-Jun-20 04:32N 57°41' E 011°52'0 0.0
2016-Jun-20 03:32N 57°41' E 011°52'0 0.0
2016-Jun-20 02:32N 57°41' E 011°52'0 0.0
2016-Jun-20 01:32N 57°41' E 011°52'0 0.0
2016-Jun-20 00:32N 57°41' E 011°52'0 0.0
2016-Jun-19 23:32N 57°41' E 011°52'0 0.0
2016-Jun-19 22:32N 57°41' E 011°52'0 0.0
2016-Jun-19 21:32N 57°41' E 011°52'0 0.0
2016-Jun-19 20:32N 57°41' E 011°52'0 0.0
2016-Jun-19 19:32N 57°41' E 011°52'0 0.0
2016-Jun-19 18:32N 57°41' E 011°52'0 0.0
2016-Jun-19 17:32N 57°41' E 011°52'0 0.0
2016-Jun-19 16:32N 57°41' E 011°52'0 0.0
2016-Jun-19 15:32N 57°41' E 011°52'0 0.0
2016-Jun-19 14:32N 57°41' E 011°52'0 0.0
2016-Jun-19 13:32N 57°41' E 011°52'0 0.0
2016-Jun-19 12:32N 57°41' E 011°52'0 0.2
2016-Jun-19 11:33N 57°41' E 011°53'0 0.0
2016-Jun-19 10:33N 57°41' E 011°53'0 0.0
2016-Jun-19 09:33N 57°41' E 011°53'0 0.0
2016-Jun-19 08:33N 57°41' E 011°53'0 0.0
2016-Jun-19 07:33N 57°41' E 011°53'0 0.0
2016-Jun-19 06:33N 57°41' E 011°53'0 0.0
2016-Jun-19 05:33N 57°41' E 011°53'0 0.0
2016-Jun-19 04:33N 57°41' E 011°53'0 0.0
2016-Jun-19 03:33N 57°41' E 011°53'0 0.0
2016-Jun-19 02:33N 57°41' E 011°53'0 0.0
2016-Jun-19 01:33N 57°41' E 011°53'0 0.0
2016-Jun-19 00:33N 57°41' E 011°53'0 0.0
2016-Jun-18 23:33N 57°41' E 011°53'0 0.0
2016-Jun-18 22:33N 57°41' E 011°53'0 0.0
2016-Jun-18 21:33N 57°41' E 011°53'0 0.0
2016-Jun-18 20:32N 57°41' E 011°53'0 0.0
2016-Jun-18 19:32N 57°41' E 011°53'0 0.0
2016-Jun-18 18:32N 57°41' E 011°53'0 0.0
2016-Jun-18 17:32N 57°41' E 011°53'0 0.0
2016-Jun-18 16:32N 57°41' E 011°53'0 0.0
2016-Jun-18 15:32N 57°41' E 011°53'0 0.0
2016-Jun-18 14:32N 57°41' E 011°53'0 0.0
2016-Jun-18 13:32N 57°41' E 011°53'0 0.0
2016-Jun-18 12:32N 57°41' E 011°53'0 0.0
2016-Jun-18 11:32N 57°41' E 011°53'0 0.0
2016-Jun-18 10:32N 57°41' E 011°53'0 0.0
2016-Jun-18 09:32N 57°41' E 011°53'0 0.0
2016-Jun-18 08:32N 57°41' E 011°53'0 0.0
2016-Jun-18 07:32N 57°41' E 011°53'0 0.0
2016-Jun-18 06:32N 57°41' E 011°53'0 0.0
2016-Jun-18 05:32N 57°41' E 011°53'0 0.0
2016-Jun-18 04:32N 57°41' E 011°53'  

Dump ship's entire track history